Satellite Precipitation Estimates (TXUS20 KWBC)
Issued by NWS

Home | Current Version | Previous Version | Text Only | Print | Product List | Glossary On
Versions: 1 2 3
000
SPTD31 TTPP 231843 RRA
SPECI
TTPP 231840Z 31008KT 8000 -SHRA VCSH BKN012TCU 27/22 Q1011=



USA.gov is the U.S. government's official web portal to all federal, state and local government web resources and services.